Rosenberg's Hourly Summary for Thursday, April 20, 2017
Hour Temp
(f)
RH
(%)
Solar Rad.
(MJ/m2)
Rainfall
(in)
Wind
(mph)
4/20/2017 12:00 AM 65 92 0 0 1.74
4/20/2017 1:00 AM 64 93 0 0 0.7
4/20/2017 2:00 AM 63 94 0 0 0.57
4/20/2017 3:00 AM 62 94 0 0 0.57
4/20/2017 4:00 AM 61 95 0 0 0.91
4/20/2017 5:00 AM 61 95 0.01 0 1.57
4/20/2017 6:00 AM 60 95 0.26 0 0.7
4/20/2017 7:00 AM 62 95 0.93 0 1.74
4/20/2017 8:00 AM 66 85 0.96 0 3.35
4/20/2017 9:00 AM 71 73 1.86 0 4.98
4/20/2017 10:00 AM 74 66 1.56 0 4.53
4/20/2017 11:00 AM 76 61 2.48 0 4.55
4/20/2017 12:00 PM 78 58 2.4 0 4.28
4/20/2017 1:00 PM 79 57 2.62 0 5.14
4/20/2017 2:00 PM 80 56 2.11 0 5.03
4/20/2017 3:00 PM 79 57 1.04 0 4.28
4/20/2017 4:00 PM 79 59 1.12 0 5.75
4/20/2017 5:00 PM 79 58 0.84 0 6.22
4/20/2017 6:00 PM 76 64 0.16 0 5.23
4/20/2017 7:00 PM 73 73 0 0 3.81
4/20/2017 8:00 PM 71 80 0 0 2.81
4/20/2017 9:00 PM 68 86 0 0 0.94
4/20/2017 10:00 PM 66 89 0 0 0.57
4/20/2017 11:00 PM 64 91 0 0 0.57
Data Summary 69 77 18.35 0.00 2.94